sensor_id;sensor_type;location;lat;lon;timestamp;P1;durP1;ratioP1;P2;durP2;ratioP2
3849;SDS011;1940;51.052;13.678;2023-08-06T00:02:23;10.10;;;6.00;;
3849;SDS011;1940;51.052;13.678;2023-08-06T00:04:49;9.00;;;5.57;;
3849;SDS011;1940;51.052;13.678;2023-08-06T00:07:14;10.73;;;6.60;;
3849;SDS011;1940;51.052;13.678;2023-08-06T00:09:40;9.13;;;6.63;;
3849;SDS011;1940;51.052;13.678;2023-08-06T00:12:06;11.23;;;6.37;;
3849;SDS011;1940;51.052;13.678;2023-08-06T00:14:31;11.20;;;6.97;;
3849;SDS011;1940;51.052;13.678;2023-08-06T00:16:57;11.13;;;7.00;;
3849;SDS011;1940;51.052;13.678;2023-08-06T00:19:23;10.30;;;7.30;;
3849;SDS011;1940;51.052;13.678;2023-08-06T00:21:48;10.83;;;7.30;;
3849;SDS011;1940;51.052;13.678;2023-08-06T00:24:14;15.63;;;7.10;;
3849;SDS011;1940;51.052;13.678;2023-08-06T00:26:39;10.13;;;7.07;;
3849;SDS011;1940;51.052;13.678;2023-08-06T00:29:05;10.27;;;7.20;;
3849;SDS011;1940;51.052;13.678;2023-08-06T00:31:30;13.60;;;7.70;;
3849;SDS011;1940;51.052;13.678;2023-08-06T00:33:56;10.60;;;7.70;;
3849;SDS011;1940;51.052;13.678;2023-08-06T00:36:21;13.23;;;8.00;;
3849;SDS011;1940;51.052;13.678;2023-08-06T00:38:47;11.20;;;7.30;;
3849;SDS011;1940;51.052;13.678;2023-08-06T00:41:13;11.47;;;7.23;;
3849;SDS011;1940;51.052;13.678;2023-08-06T00:43:39;10.90;;;7.83;;
3849;SDS011;1940;51.052;13.678;2023-08-06T00:46:04;12.60;;;8.10;;
3849;SDS011;1940;51.052;13.678;2023-08-06T00:48:30;11.33;;;7.30;;
3849;SDS011;1940;51.052;13.678;2023-08-06T00:50:56;10.33;;;7.67;;
3849;SDS011;1940;51.052;13.678;2023-08-06T00:53:22;14.30;;;8.07;;
3849;SDS011;1940;51.052;13.678;2023-08-06T00:55:47;11.90;;;7.53;;
3849;SDS011;1940;51.052;13.678;2023-08-06T00:58:13;12.37;;;8.23;;
3849;SDS011;1940;51.052;13.678;2023-08-06T01:00:40;13.77;;;8.27;;
3849;SDS011;1940;51.052;13.678;2023-08-06T01:03:05;12.67;;;8.30;;
3849;SDS011;1940;51.052;13.678;2023-08-06T01:05:31;12.30;;;8.47;;
3849;SDS011;1940;51.052;13.678;2023-08-06T01:08:08;13.40;;;8.90;;
3849;SDS011;1940;51.052;13.678;2023-08-06T01:13:58;14.17;;;8.33;;
3849;SDS011;1940;51.052;13.678;2023-08-06T01:16:28;14.07;;;9.27;;
3849;SDS011;1940;51.052;13.678;2023-08-06T01:18:56;13.67;;;8.00;;
3849;SDS011;1940;51.052;13.678;2023-08-06T01:21:23;13.47;;;8.33;;
3849;SDS011;1940;51.052;13.678;2023-08-06T01:23:48;12.20;;;8.30;;
3849;SDS011;1940;51.052;13.678;2023-08-06T01:26:15;13.93;;;9.20;;
3849;SDS011;1940;51.052;13.678;2023-08-06T01:29:04;15.40;;;9.30;;
3849;SDS011;1940;51.052;13.678;2023-08-06T01:31:35;15.97;;;9.47;;
3849;SDS011;1940;51.052;13.678;2023-08-06T01:34:03;16.20;;;9.80;;
3849;SDS011;1940;51.052;13.678;2023-08-06T01:36:32;15.47;;;9.37;;
3849;SDS011;1940;51.052;13.678;2023-08-06T01:38:58;18.27;;;9.50;;
3849;SDS011;1940;51.052;13.678;2023-08-06T01:41:24;13.13;;;8.80;;
3849;SDS011;1940;51.052;13.678;2023-08-06T01:43:49;15.93;;;9.40;;
3849;SDS011;1940;51.052;13.678;2023-08-06T01:46:15;14.70;;;10.03;;
3849;SDS011;1940;51.052;13.678;2023-08-06T01:48:40;14.03;;;8.80;;
3849;SDS011;1940;51.052;13.678;2023-08-06T01:51:07;15.30;;;9.57;;
3849;SDS011;1940;51.052;13.678;2023-08-06T01:53:33;15.20;;;9.80;;
3849;SDS011;1940;51.052;13.678;2023-08-06T01:55:59;17.90;;;10.27;;
3849;SDS011;1940;51.052;13.678;2023-08-06T01:58:24;17.57;;;9.93;;
3849;SDS011;1940;51.052;13.678;2023-08-06T02:00:50;16.90;;;9.63;;
3849;SDS011;1940;51.052;13.678;2023-08-06T02:03:15;14.77;;;9.90;;
3849;SDS011;1940;51.052;13.678;2023-08-06T02:05:41;18.33;;;10.40;;
3849;SDS011;1940;51.052;13.678;2023-08-06T02:08:07;17.33;;;10.90;;
3849;SDS011;1940;51.052;13.678;2023-08-06T02:10:32;15.80;;;9.50;;
3849;SDS011;1940;51.052;13.678;2023-08-06T02:12:58;17.57;;;10.07;;
3849;SDS011;1940;51.052;13.678;2023-08-06T02:15:23;20.40;;;11.03;;
3849;SDS011;1940;51.052;13.678;2023-08-06T02:17:49;16.50;;;10.43;;
3849;SDS011;1940;51.052;13.678;2023-08-06T02:20:15;18.83;;;11.63;;
3849;SDS011;1940;51.052;13.678;2023-08-06T02:22:40;19.43;;;11.70;;
3849;SDS011;1940;51.052;13.678;2023-08-06T02:25:06;19.73;;;11.70;;
3849;SDS011;1940;51.052;13.678;2023-08-06T02:27:31;15.80;;;10.47;;
3849;SDS011;1940;51.052;13.678;2023-08-06T02:29:57;17.70;;;11.13;;
3849;SDS011;1940;51.052;13.678;2023-08-06T02:32:22;18.50;;;11.53;;
3849;SDS011;1940;51.052;13.678;2023-08-06T02:34:48;17.27;;;11.20;;
3849;SDS011;1940;51.052;13.678;2023-08-06T02:37:13;21.67;;;12.37;;
3849;SDS011;1940;51.052;13.678;2023-08-06T02:39:39;18.93;;;12.23;;
3849;SDS011;1940;51.052;13.678;2023-08-06T02:42:07;18.97;;;11.70;;
3849;SDS011;1940;51.052;13.678;2023-08-06T02:44:33;28.87;;;12.20;;
3849;SDS011;1940;51.052;13.678;2023-08-06T02:46:59;20.90;;;12.27;;
3849;SDS011;1940;51.052;13.678;2023-08-06T02:49:25;21.60;;;13.30;;
3849;SDS011;1940;51.052;13.678;2023-08-06T02:51:51;23.17;;;12.53;;
3849;SDS011;1940;51.052;13.678;2023-08-06T02:54:17;22.67;;;13.60;;
3849;SDS011;1940;51.052;13.678;2023-08-06T02:56:43;23.07;;;13.67;;
3849;SDS011;1940;51.052;13.678;2023-08-06T02:59:10;22.70;;;12.43;;
3849;SDS011;1940;51.052;13.678;2023-08-06T03:01:36;26.40;;;13.47;;
3849;SDS011;1940;51.052;13.678;2023-08-06T03:04:02;24.50;;;13.87;;
3849;SDS011;1940;51.052;13.678;2023-08-06T03:06:27;22.50;;;13.57;;
3849;SDS011;1940;51.052;13.678;2023-08-06T03:08:53;22.40;;;13.33;;
3849;SDS011;1940;51.052;13.678;2023-08-06T03:11:18;24.17;;;12.90;;
3849;SDS011;1940;51.052;13.678;2023-08-06T03:13:44;26.50;;;13.80;;
3849;SDS011;1940;51.052;13.678;2023-08-06T03:16:09;21.90;;;12.33;;
3849;SDS011;1940;51.052;13.678;2023-08-06T03:18:35;23.73;;;13.40;;
3849;SDS011;1940;51.052;13.678;2023-08-06T03:21:00;23.40;;;12.80;;
3849;SDS011;1940;51.052;13.678;2023-08-06T03:23:26;25.17;;;13.33;;
3849;SDS011;1940;51.052;13.678;2023-08-06T03:25:52;24.60;;;12.83;;
3849;SDS011;1940;51.052;13.678;2023-08-06T03:28:17;23.50;;;13.43;;
3849;SDS011;1940;51.052;13.678;2023-08-06T03:30:43;21.57;;;13.70;;
3849;SDS011;1940;51.052;13.678;2023-08-06T03:33:08;21.40;;;13.20;;
3849;SDS011;1940;51.052;13.678;2023-08-06T03:35:34;23.03;;;12.57;;
3849;SDS011;1940;51.052;13.678;2023-08-06T03:37:59;23.03;;;13.10;;
3849;SDS011;1940;51.052;13.678;2023-08-06T03:40:25;18.77;;;12.30;;
3849;SDS011;1940;51.052;13.678;2023-08-06T03:42:50;22.63;;;12.80;;
3849;SDS011;1940;51.052;13.678;2023-08-06T03:45:16;19.40;;;11.30;;
3849;SDS011;1940;51.052;13.678;2023-08-06T03:47:42;20.70;;;12.73;;
3849;SDS011;1940;51.052;13.678;2023-08-06T03:50:08;22.33;;;12.30;;
3849;SDS011;1940;51.052;13.678;2023-08-06T03:52:33;19.20;;;11.60;;
3849;SDS011;1940;51.052;13.678;2023-08-06T03:54:59;22.10;;;12.50;;
3849;SDS011;1940;51.052;13.678;2023-08-06T03:57:24;20.90;;;11.87;;
3849;SDS011;1940;51.052;13.678;2023-08-06T03:59:50;21.07;;;12.17;;
3849;SDS011;1940;51.052;13.678;2023-08-06T04:02:15;22.50;;;11.83;;
3849;SDS011;1940;51.052;13.678;2023-08-06T04:04:41;21.87;;;12.60;;
3849;SDS011;1940;51.052;13.678;2023-08-06T04:07:07;22.50;;;12.30;;
3849;SDS011;1940;51.052;13.678;2023-08-06T04:09:32;20.37;;;12.20;;
3849;SDS011;1940;51.052;13.678;2023-08-06T04:11:58;20.17;;;12.40;;
3849;SDS011;1940;51.052;13.678;2023-08-06T04:14:23;22.07;;;12.50;;
3849;SDS011;1940;51.052;13.678;2023-08-06T04:16:51;22.50;;;12.30;;
3849;SDS011;1940;51.052;13.678;2023-08-06T04:19:16;21.13;;;12.00;;
3849;SDS011;1940;51.052;13.678;2023-08-06T04:21:42;21.83;;;12.07;;
3849;SDS011;1940;51.052;13.678;2023-08-06T04:24:07;24.40;;;12.43;;
3849;SDS011;1940;51.052;13.678;2023-08-06T04:26:33;20.80;;;12.10;;
3849;SDS011;1940;51.052;13.678;2023-08-06T04:28:58;24.07;;;12.00;;
3849;SDS011;1940;51.052;13.678;2023-08-06T04:31:24;22.00;;;12.93;;
3849;SDS011;1940;51.052;13.678;2023-08-06T04:33:49;23.47;;;13.63;;
3849;SDS011;1940;51.052;13.678;2023-08-06T04:36:15;23.00;;;12.03;;
3849;SDS011;1940;51.052;13.678;2023-08-06T04:38:40;28.70;;;13.70;;
3849;SDS011;1940;51.052;13.678;2023-08-06T04:41:10;20.30;;;12.80;;
3849;SDS011;1940;51.052;13.678;2023-08-06T04:43:35;21.70;;;12.40;;
3849;SDS011;1940;51.052;13.678;2023-08-06T04:46:01;24.30;;;12.23;;
3849;SDS011;1940;51.052;13.678;2023-08-06T04:48:26;20.33;;;12.47;;
3849;SDS011;1940;51.052;13.678;2023-08-06T04:50:52;21.83;;;12.87;;
3849;SDS011;1940;51.052;13.678;2023-08-06T04:53:17;18.93;;;12.20;;
3849;SDS011;1940;51.052;13.678;2023-08-06T04:55:43;26.63;;;12.87;;
3849;SDS011;1940;51.052;13.678;2023-08-06T04:58:09;20.33;;;11.37;;
3849;SDS011;1940;51.052;13.678;2023-08-06T05:00:35;14.37;;;9.80;;
3849;SDS011;1940;51.052;13.678;2023-08-06T05:03:00;18.90;;;12.10;;
3849;SDS011;1940;51.052;13.678;2023-08-06T05:05:26;16.90;;;10.30;;
3849;SDS011;1940;51.052;13.678;2023-08-06T05:07:53;17.57;;;9.60;;
3849;SDS011;1940;51.052;13.678;2023-08-06T05:10:19;13.77;;;9.23;;
3849;SDS011;1940;51.052;13.678;2023-08-06T05:12:45;14.33;;;9.20;;
3849;SDS011;1940;51.052;13.678;2023-08-06T05:15:11;18.20;;;10.30;;
3849;SDS011;1940;51.052;13.678;2023-08-06T05:17:36;13.30;;;9.10;;
3849;SDS011;1940;51.052;13.678;2023-08-06T05:20:02;12.97;;;8.20;;
3849;SDS011;1940;51.052;13.678;2023-08-06T05:22:28;19.67;;;10.00;;
3849;SDS011;1940;51.052;13.678;2023-08-06T05:24:53;12.53;;;8.87;;
3849;SDS011;1940;51.052;13.678;2023-08-06T05:27:19;10.97;;;7.70;;
3849;SDS011;1940;51.052;13.678;2023-08-06T05:29:45;13.40;;;8.80;;
3849;SDS011;1940;51.052;13.678;2023-08-06T05:32:10;13.70;;;7.13;;
3849;SDS011;1940;51.052;13.678;2023-08-06T05:34:36;8.87;;;6.40;;
3849;SDS011;1940;51.052;13.678;2023-08-06T05:37:02;7.90;;;5.80;;
3849;SDS011;1940;51.052;13.678;2023-08-06T05:39:28;9.30;;;6.00;;
3849;SDS011;1940;51.052;13.678;2023-08-06T05:41:53;11.23;;;5.90;;
3849;SDS011;1940;51.052;13.678;2023-08-06T05:44:20;7.40;;;5.70;;
3849;SDS011;1940;51.052;13.678;2023-08-06T05:46:46;6.27;;;5.30;;
3849;SDS011;1940;51.052;13.678;2023-08-06T05:49:11;7.57;;;5.80;;
3849;SDS011;1940;51.052;13.678;2023-08-06T05:51:38;7.90;;;6.10;;
3849;SDS011;1940;51.052;13.678;2023-08-06T05:54:04;8.80;;;6.07;;
3849;SDS011;1940;51.052;13.678;2023-08-06T05:56:29;10.43;;;6.83;;
3849;SDS011;1940;51.052;13.678;2023-08-06T05:58:55;11.50;;;6.90;;
3849;SDS011;1940;51.052;13.678;2023-08-06T06:01:20;9.47;;;7.03;;
3849;SDS011;1940;51.052;13.678;2023-08-06T06:03:46;11.23;;;7.30;;
3849;SDS011;1940;51.052;13.678;2023-08-06T06:06:12;12.53;;;7.63;;
3849;SDS011;1940;51.052;13.678;2023-08-06T06:08:37;10.93;;;7.70;;
3849;SDS011;1940;51.052;13.678;2023-08-06T06:11:03;12.60;;;6.73;;
3849;SDS011;1940;51.052;13.678;2023-08-06T06:13:28;8.83;;;6.50;;
3849;SDS011;1940;51.052;13.678;2023-08-06T06:15:54;10.63;;;6.50;;
3849;SDS011;1940;51.052;13.678;2023-08-06T06:18:21;9.87;;;7.57;;
3849;SDS011;1940;51.052;13.678;2023-08-06T06:20:46;11.33;;;6.70;;
3849;SDS011;1940;51.052;13.678;2023-08-06T06:23:12;11.73;;;7.07;;
3849;SDS011;1940;51.052;13.678;2023-08-06T06:25:41;8.77;;;6.37;;
3849;SDS011;1940;51.052;13.678;2023-08-06T06:28:17;10.00;;;6.40;;
3849;SDS011;1940;51.052;13.678;2023-08-06T06:30:42;9.50;;;6.70;;
3849;SDS011;1940;51.052;13.678;2023-08-06T06:33:08;8.70;;;5.90;;
3849;SDS011;1940;51.052;13.678;2023-08-06T06:35:34;9.00;;;6.33;;
3849;SDS011;1940;51.052;13.678;2023-08-06T06:37:59;9.30;;;6.93;;
3849;SDS011;1940;51.052;13.678;2023-08-06T06:40:25;9.40;;;6.67;;
3849;SDS011;1940;51.052;13.678;2023-08-06T06:42:51;10.17;;;7.03;;
3849;SDS011;1940;51.052;13.678;2023-08-06T06:45:16;12.70;;;6.80;;
3849;SDS011;1940;51.052;13.678;2023-08-06T06:47:42;11.60;;;7.67;;
3849;SDS011;1940;51.052;13.678;2023-08-06T06:50:07;12.87;;;6.93;;
3849;SDS011;1940;51.052;13.678;2023-08-06T06:52:33;9.20;;;6.70;;
3849;SDS011;1940;51.052;13.678;2023-08-06T06:54:59;8.20;;;6.03;;
3849;SDS011;1940;51.052;13.678;2023-08-06T06:57:24;9.83;;;6.07;;
3849;SDS011;1940;51.052;13.678;2023-08-06T06:59:50;10.27;;;6.13;;
3849;SDS011;1940;51.052;13.678;2023-08-06T07:02:15;8.80;;;6.33;;
3849;SDS011;1940;51.052;13.678;2023-08-06T07:04:41;9.20;;;5.83;;
3849;SDS011;1940;51.052;13.678;2023-08-06T07:07:06;8.20;;;5.63;;
3849;SDS011;1940;51.052;13.678;2023-08-06T07:09:33;8.57;;;6.10;;
3849;SDS011;1940;51.052;13.678;2023-08-06T07:11:58;10.10;;;5.70;;
3849;SDS011;1940;51.052;13.678;2023-08-06T07:14:25;8.10;;;6.00;;
3849;SDS011;1940;51.052;13.678;2023-08-06T07:16:50;11.90;;;5.80;;
3849;SDS011;1940;51.052;13.678;2023-08-06T07:19:16;8.47;;;6.50;;
3849;SDS011;1940;51.052;13.678;2023-08-06T07:21:41;10.40;;;6.17;;
3849;SDS011;1940;51.052;13.678;2023-08-06T07:24:07;9.50;;;6.03;;
3849;SDS011;1940;51.052;13.678;2023-08-06T07:26:33;9.93;;;6.40;;
3849;SDS011;1940;51.052;13.678;2023-08-06T07:28:58;7.73;;;5.17;;
3849;SDS011;1940;51.052;13.678;2023-08-06T07:31:24;6.50;;;4.83;;
3849;SDS011;1940;51.052;13.678;2023-08-06T07:33:49;8.83;;;4.80;;
3849;SDS011;1940;51.052;13.678;2023-08-06T07:36:15;7.03;;;4.90;;
3849;SDS011;1940;51.052;13.678;2023-08-06T07:38:40;8.27;;;5.57;;
3849;SDS011;1940;51.052;13.678;2023-08-06T07:41:06;5.50;;;4.20;;
3849;SDS011;1940;51.052;13.678;2023-08-06T07:43:33;6.20;;;4.47;;
3849;SDS011;1940;51.052;13.678;2023-08-06T07:45:58;5.30;;;4.20;;
3849;SDS011;1940;51.052;13.678;2023-08-06T07:48:25;5.60;;;3.70;;
3849;SDS011;1940;51.052;13.678;2023-08-06T07:50:54;4.70;;;3.50;;
3849;SDS011;1940;51.052;13.678;2023-08-06T07:53:23;7.47;;;4.07;;
3849;SDS011;1940;51.052;13.678;2023-08-06T07:55:52;5.63;;;4.00;;
3849;SDS011;1940;51.052;13.678;2023-08-06T07:58:19;5.90;;;4.10;;
3849;SDS011;1940;51.052;13.678;2023-08-06T08:00:45;7.40;;;4.03;;
3849;SDS011;1940;51.052;13.678;2023-08-06T08:03:11;5.33;;;3.37;;
3849;SDS011;1940;51.052;13.678;2023-08-06T08:05:41;7.50;;;4.00;;
3849;SDS011;1940;51.052;13.678;2023-08-06T08:08:07;4.60;;;3.57;;
3849;SDS011;1940;51.052;13.678;2023-08-06T08:10:33;4.13;;;3.20;;
3849;SDS011;1940;51.052;13.678;2023-08-06T08:12:59;5.20;;;3.57;;
3849;SDS011;1940;51.052;13.678;2023-08-06T08:15:29;8.03;;;3.40;;
3849;SDS011;1940;51.052;13.678;2023-08-06T08:17:55;4.30;;;3.23;;
3849;SDS011;1940;51.052;13.678;2023-08-06T08:20:21;6.23;;;3.30;;
3849;SDS011;1940;51.052;13.678;2023-08-06T08:22:46;3.20;;;2.60;;
3849;SDS011;1940;51.052;13.678;2023-08-06T08:25:12;4.53;;;2.50;;
3849;SDS011;1940;51.052;13.678;2023-08-06T08:27:38;3.57;;;2.40;;
3849;SDS011;1940;51.052;13.678;2023-08-06T08:30:04;3.90;;;2.40;;
3849;SDS011;1940;51.052;13.678;2023-08-06T08:32:30;4.37;;;3.07;;
3849;SDS011;1940;51.052;13.678;2023-08-06T08:34:56;3.87;;;2.53;;
3849;SDS011;1940;51.052;13.678;2023-08-06T08:37:22;3.40;;;2.43;;
3849;SDS011;1940;51.052;13.678;2023-08-06T08:39:48;3.70;;;2.80;;
3849;SDS011;1940;51.052;13.678;2023-08-06T08:42:14;4.63;;;3.10;;
3849;SDS011;1940;51.052;13.678;2023-08-06T08:44:40;3.97;;;2.90;;
3849;SDS011;1940;51.052;13.678;2023-08-06T08:47:07;6.07;;;2.80;;
3849;SDS011;1940;51.052;13.678;2023-08-06T08:49:34;4.20;;;2.80;;
3849;SDS011;1940;51.052;13.678;2023-08-06T08:52:01;4.63;;;3.00;;
3849;SDS011;1940;51.052;13.678;2023-08-06T08:54:30;5.37;;;2.60;;
3849;SDS011;1940;51.052;13.678;2023-08-06T08:56:57;5.60;;;3.20;;
3849;SDS011;1940;51.052;13.678;2023-08-06T08:59:23;4.20;;;2.97;;
3849;SDS011;1940;51.052;13.678;2023-08-06T09:01:48;3.53;;;2.60;;
3849;SDS011;1940;51.052;13.678;2023-08-06T09:04:18;4.60;;;3.60;;
3849;SDS011;1940;51.052;13.678;2023-08-06T09:06:45;3.70;;;2.80;;
3849;SDS011;1940;51.052;13.678;2023-08-06T09:09:13;4.13;;;3.23;;
3849;SDS011;1940;51.052;13.678;2023-08-06T09:11:44;6.00;;;3.57;;
3849;SDS011;1940;51.052;13.678;2023-08-06T09:14:13;5.03;;;3.27;;
3849;SDS011;1940;51.052;13.678;2023-08-06T09:16:38;6.60;;;3.37;;
3849;SDS011;1940;51.052;13.678;2023-08-06T09:19:10;4.70;;;3.60;;
3849;SDS011;1940;51.052;13.678;2023-08-06T09:21:38;4.10;;;3.20;;
3849;SDS011;1940;51.052;13.678;2023-08-06T09:24:10;4.43;;;3.57;;
3849;SDS011;1940;51.052;13.678;2023-08-06T09:26:37;4.70;;;3.57;;
3849;SDS011;1940;51.052;13.678;2023-08-06T09:29:07;5.43;;;3.80;;
3849;SDS011;1940;51.052;13.678;2023-08-06T09:31:42;5.87;;;3.30;;
3849;SDS011;1940;51.052;13.678;2023-08-06T09:34:18;7.20;;;3.93;;
3849;SDS011;1940;51.052;13.678;2023-08-06T09:36:47;5.93;;;3.60;;
3849;SDS011;1940;51.052;13.678;2023-08-06T09:39:16;7.27;;;4.20;;
3849;SDS011;1940;51.052;13.678;2023-08-06T09:41:43;5.77;;;3.80;;
3849;SDS011;1940;51.052;13.678;2023-08-06T09:44:15;6.50;;;4.17;;
3849;SDS011;1940;51.052;13.678;2023-08-06T09:46:43;4.60;;;3.77;;
3849;SDS011;1940;51.052;13.678;2023-08-06T09:49:18;4.50;;;3.67;;
3849;SDS011;1940;51.052;13.678;2023-08-06T09:51:47;5.73;;;3.47;;
3849;SDS011;1940;51.052;13.678;2023-08-06T09:54:16;5.77;;;4.00;;
3849;SDS011;1940;51.052;13.678;2023-08-06T09:56:42;3.50;;;2.90;;
3849;SDS011;1940;51.052;13.678;2023-08-06T09:59:08;3.77;;;3.10;;
3849;SDS011;1940;51.052;13.678;2023-08-06T10:01:34;4.10;;;3.17;;
3849;SDS011;1940;51.052;13.678;2023-08-06T10:04:00;4.97;;;3.80;;
3849;SDS011;1940;51.052;13.678;2023-08-06T10:06:28;4.43;;;2.97;;
3849;SDS011;1940;51.052;13.678;2023-08-06T10:08:54;4.13;;;3.27;;
3849;SDS011;1940;51.052;13.678;2023-08-06T10:11:23;7.93;;;3.50;;
3849;SDS011;1940;51.052;13.678;2023-08-06T10:13:51;4.70;;;3.30;;
3849;SDS011;1940;51.052;13.678;2023-08-06T10:16:20;9.83;;;3.47;;
3849;SDS011;1940;51.052;13.678;2023-08-06T10:18:47;9.70;;;3.50;;
3849;SDS011;1940;51.052;13.678;2023-08-06T10:21:14;4.97;;;3.50;;
3849;SDS011;1940;51.052;13.678;2023-08-06T10:23:41;5.00;;;3.10;;
3849;SDS011;1940;51.052;13.678;2023-08-06T10:26:06;3.87;;;2.90;;
3849;SDS011;1940;51.052;13.678;2023-08-06T10:28:39;4.10;;;2.90;;
3849;SDS011;1940;51.052;13.678;2023-08-06T10:31:05;3.97;;;2.93;;
3849;SDS011;1940;51.052;13.678;2023-08-06T10:33:44;6.60;;;3.20;;
3849;SDS011;1940;51.052;13.678;2023-08-06T10:36:11;8.00;;;2.40;;
3849;SDS011;1940;51.052;13.678;2023-08-06T10:38:43;4.60;;;3.63;;
3849;SDS011;1940;51.052;13.678;2023-08-06T10:41:14;8.20;;;3.33;;
3849;SDS011;1940;51.052;13.678;2023-08-06T10:44:06;3.17;;;2.60;;
3849;SDS011;1940;51.052;13.678;2023-08-06T10:46:33;5.60;;;3.57;;
3849;SDS011;1940;51.052;13.678;2023-08-06T10:48:59;8.90;;;3.70;;
3849;SDS011;1940;51.052;13.678;2023-08-06T10:51:24;4.40;;;2.87;;
3849;SDS011;1940;51.052;13.678;2023-08-06T10:53:50;3.90;;;2.80;;
3849;SDS011;1940;51.052;13.678;2023-08-06T10:56:16;4.77;;;2.90;;
3849;SDS011;1940;51.052;13.678;2023-08-06T10:58:47;4.30;;;2.93;;
3849;SDS011;1940;51.052;13.678;2023-08-06T11:01:18;4.10;;;3.00;;
3849;SDS011;1940;51.052;13.678;2023-08-06T11:03:45;3.40;;;3.07;;
3849;SDS011;1940;51.052;13.678;2023-08-06T11:06:17;5.70;;;3.37;;
3849;SDS011;1940;51.052;13.678;2023-08-06T11:08:48;4.00;;;2.97;;
3849;SDS011;1940;51.052;13.678;2023-08-06T11:11:15;4.40;;;2.80;;
3849;SDS011;1940;51.052;13.678;2023-08-06T11:13:42;4.03;;;3.33;;
3849;SDS011;1940;51.052;13.678;2023-08-06T11:16:12;3.80;;;2.97;;
3849;SDS011;1940;51.052;13.678;2023-08-06T11:18:39;3.90;;;3.20;;
3849;SDS011;1940;51.052;13.678;2023-08-06T11:21:06;6.33;;;2.90;;
3849;SDS011;1940;51.052;13.678;2023-08-06T11:23:32;3.30;;;2.70;;
3849;SDS011;1940;51.052;13.678;2023-08-06T11:25:59;3.17;;;2.63;;
3849;SDS011;1940;51.052;13.678;2023-08-06T11:28:25;5.87;;;3.20;;
3849;SDS011;1940;51.052;13.678;2023-08-06T11:30:51;3.03;;;2.60;;
3849;SDS011;1940;51.052;13.678;2023-08-06T11:33:21;3.03;;;2.37;;
3849;SDS011;1940;51.052;13.678;2023-08-06T11:35:50;3.90;;;2.77;;
3849;SDS011;1940;51.052;13.678;2023-08-06T11:38:16;4.60;;;2.87;;
3849;SDS011;1940;51.052;13.678;2023-08-06T11:40:43;4.17;;;2.93;;
3849;SDS011;1940;51.052;13.678;2023-08-06T11:43:10;5.10;;;2.70;;
3849;SDS011;1940;51.052;13.678;2023-08-06T11:45:37;3.13;;;2.57;;
3849;SDS011;1940;51.052;13.678;2023-08-06T11:48:02;4.10;;;3.07;;
3849;SDS011;1940;51.052;13.678;2023-08-06T11:50:29;6.33;;;3.30;;
3849;SDS011;1940;51.052;13.678;2023-08-06T11:52:59;4.63;;;3.63;;
3849;SDS011;1940;51.052;13.678;2023-08-06T11:55:26;4.33;;;3.37;;
3849;SDS011;1940;51.052;13.678;2023-08-06T11:57:53;3.17;;;2.80;;
3849;SDS011;1940;51.052;13.678;2023-08-06T12:00:19;4.60;;;3.27;;
3849;SDS011;1940;51.052;13.678;2023-08-06T12:02:47;5.20;;;3.43;;
3849;SDS011;1940;51.052;13.678;2023-08-06T12:05:17;4.00;;;3.60;;
3849;SDS011;1940;51.052;13.678;2023-08-06T12:07:55;4.33;;;3.13;;
3849;SDS011;1940;51.052;13.678;2023-08-06T12:10:22;8.80;;;3.53;;
3849;SDS011;1940;51.052;13.678;2023-08-06T12:12:50;3.53;;;3.23;;
3849;SDS011;1940;51.052;13.678;2023-08-06T12:15:16;4.00;;;3.20;;
3849;SDS011;1940;51.052;13.678;2023-08-06T12:17:41;4.30;;;3.30;;
3849;SDS011;1940;51.052;13.678;2023-08-06T12:20:08;3.83;;;3.43;;
3849;SDS011;1940;51.052;13.678;2023-08-06T12:22:34;4.30;;;3.30;;
3849;SDS011;1940;51.052;13.678;2023-08-06T12:25:07;7.33;;;3.17;;
3849;SDS011;1940;51.052;13.678;2023-08-06T12:27:36;4.43;;;3.30;;
3849;SDS011;1940;51.052;13.678;2023-08-06T12:30:03;5.07;;;3.70;;
3849;SDS011;1940;51.052;13.678;2023-08-06T12:32:30;3.40;;;3.00;;
3849;SDS011;1940;51.052;13.678;2023-08-06T12:34:56;4.50;;;3.40;;
3849;SDS011;1940;51.052;13.678;2023-08-06T12:37:21;3.90;;;3.50;;
3849;SDS011;1940;51.052;13.678;2023-08-06T12:39:49;7.80;;;3.40;;
3849;SDS011;1940;51.052;13.678;2023-08-06T12:42:14;4.37;;;3.50;;
3849;SDS011;1940;51.052;13.678;2023-08-06T12:44:40;3.90;;;3.40;;
3849;SDS011;1940;51.052;13.678;2023-08-06T12:47:06;3.40;;;3.10;;
3849;SDS011;1940;51.052;13.678;2023-08-06T12:49:32;4.50;;;3.90;;
3849;SDS011;1940;51.052;13.678;2023-08-06T12:51:58;4.83;;;3.60;;
3849;SDS011;1940;51.052;13.678;2023-08-06T12:54:27;5.27;;;3.50;;
3849;SDS011;1940;51.052;13.678;2023-08-06T12:56:53;3.57;;;3.27;;
3849;SDS011;1940;51.052;13.678;2023-08-06T12:59:19;8.10;;;3.53;;
3849;SDS011;1940;51.052;13.678;2023-08-06T13:01:45;4.27;;;2.90;;
3849;SDS011;1940;51.052;13.678;2023-08-06T13:04:11;3.13;;;2.80;;
3849;SDS011;1940;51.052;13.678;2023-08-06T13:06:37;2.77;;;2.57;;
3849;SDS011;1940;51.052;13.678;2023-08-06T13:09:05;3.43;;;2.90;;
3849;SDS011;1940;51.052;13.678;2023-08-06T13:11:33;5.63;;;3.10;;
3849;SDS011;1940;51.052;13.678;2023-08-06T13:14:09;3.57;;;3.07;;
3849;SDS011;1940;51.052;13.678;2023-08-06T13:16:37;4.20;;;3.00;;
3849;SDS011;1940;51.052;13.678;2023-08-06T13:19:05;3.10;;;2.80;;
3849;SDS011;1940;51.052;13.678;2023-08-06T13:22:13;2.93;;;2.63;;
3849;SDS011;1940;51.052;13.678;2023-08-06T13:24:24;2.87;;;2.30;;
3849;SDS011;1940;51.052;13.678;2023-08-06T13:26:50;5.77;;;2.73;;
3849;SDS011;1940;51.052;13.678;2023-08-06T13:29:15;2.90;;;2.07;;
3849;SDS011;1940;51.052;13.678;2023-08-06T13:31:41;2.90;;;2.23;;
3849;SDS011;1940;51.052;13.678;2023-08-06T13:34:06;2.20;;;2.00;;
3849;SDS011;1940;51.052;13.678;2023-08-06T13:36:32;7.20;;;2.60;;
3849;SDS011;1940;51.052;13.678;2023-08-06T13:38:57;2.47;;;2.00;;
3849;SDS011;1940;51.052;13.678;2023-08-06T13:41:23;2.90;;;2.27;;
3849;SDS011;1940;51.052;13.678;2023-08-06T13:43:49;2.50;;;2.10;;
3849;SDS011;1940;51.052;13.678;2023-08-06T13:46:14;3.57;;;2.23;;
3849;SDS011;1940;51.052;13.678;2023-08-06T13:48:43;2.40;;;2.00;;
3849;SDS011;1940;51.052;13.678;2023-08-06T13:51:09;2.33;;;2.10;;
3849;SDS011;1940;51.052;13.678;2023-08-06T13:53:36;4.30;;;2.10;;
3849;SDS011;1940;51.052;13.678;2023-08-06T13:56:05;2.97;;;2.30;;
3849;SDS011;1940;51.052;13.678;2023-08-06T13:58:32;2.20;;;2.00;;
3849;SDS011;1940;51.052;13.678;2023-08-06T14:00:58;3.40;;;1.97;;
3849;SDS011;1940;51.052;13.678;2023-08-06T14:03:24;2.90;;;2.30;;
3849;SDS011;1940;51.052;13.678;2023-08-06T14:05:49;2.70;;;2.00;;
3849;SDS011;1940;51.052;13.678;2023-08-06T14:08:15;4.57;;;2.00;;
3849;SDS011;1940;51.052;13.678;2023-08-06T14:10:44;2.67;;;2.23;;
3849;SDS011;1940;51.052;13.678;2023-08-06T14:13:10;3.53;;;2.57;;
3849;SDS011;1940;51.052;13.678;2023-08-06T14:15:35;4.60;;;2.43;;
3849;SDS011;1940;51.052;13.678;2023-08-06T14:18:01;3.20;;;2.50;;
3849;SDS011;1940;51.052;13.678;2023-08-06T14:20:27;2.70;;;2.30;;
3849;SDS011;1940;51.052;13.678;2023-08-06T14:22:55;3.17;;;2.30;;
3849;SDS011;1940;51.052;13.678;2023-08-06T14:25:20;2.70;;;2.50;;
3849;SDS011;1940;51.052;13.678;2023-08-06T14:27:46;3.10;;;2.40;;
3849;SDS011;1940;51.052;13.678;2023-08-06T14:30:11;3.37;;;2.57;;
3849;SDS011;1940;51.052;13.678;2023-08-06T14:32:37;3.53;;;2.47;;
3849;SDS011;1940;51.052;13.678;2023-08-06T14:35:02;2.73;;;2.37;;
3849;SDS011;1940;51.052;13.678;2023-08-06T14:37:28;3.77;;;2.60;;
3849;SDS011;1940;51.052;13.678;2023-08-06T14:39:54;3.23;;;2.80;;
3849;SDS011;1940;51.052;13.678;2023-08-06T14:42:19;3.60;;;2.53;;
3849;SDS011;1940;51.052;13.678;2023-08-06T14:44:45;4.03;;;2.57;;
3849;SDS011;1940;51.052;13.678;2023-08-06T14:47:11;3.63;;;2.93;;
3849;SDS011;1940;51.052;13.678;2023-08-06T14:49:37;3.43;;;2.80;;
3849;SDS011;1940;51.052;13.678;2023-08-06T14:52:03;7.90;;;2.87;;
3849;SDS011;1940;51.052;13.678;2023-08-06T14:54:29;3.53;;;3.03;;